DLH7AL EDDB-EDDF
Flight info
| Callsign | DLH7AL |
|---|---|
| Flight time | 0h 50m |
| Altitude | 28000 |
| Route | KISUC1Q KISUC Z117 ODLUN DCT ORTAG T177 ODIPI T157 KERAX KERAX5D |
| Aircraft | A320/M-SDE3FGHIRWY/LB1 |
Departure
| Time | 2026-05-05 06:55 |
|---|---|
| Airport | Berlin Brandenburg Airport (EDDB) |
Arrival
| Time | 2026-05-05 07:45 |
|---|---|
| Airport | Frankfurt Main Airport (EDDF) |
| Time | Latitude | Longitude | Altitude | Speed | Heading |
|---|---|---|---|---|---|
| 2026-05-05 06:34 | 52.36650 | 13.50431 | 141 ft | 0 kts | 68° |
| 2026-05-05 06:47 | 52.36647 | 13.50418 | 141 ft | 2 kts | 57° |
| 2026-05-05 06:47 | 52.36638 | 13.50400 | 141 ft | 2 kts | 39° |
| 2026-05-05 06:47 | 52.36625 | 13.50388 | 140 ft | 2 kts | 20° |
| 2026-05-05 06:47 | 52.36611 | 13.50382 | 140 ft | 2 kts | 2° |
| 2026-05-05 06:48 | 52.36597 | 13.50384 | 140 ft | 2 kts | 345° |
| 2026-05-05 06:48 | 52.36588 | 13.50389 | 140 ft | 0 kts | 334° |
| 2026-05-05 06:48 | 52.36587 | 13.50389 | 140 ft | 0 kts | 334° |
| 2026-05-05 06:49 | 52.36592 | 13.50386 | 140 ft | 3 kts | 337° |
| 2026-05-05 06:50 | 52.36634 | 13.50358 | 140 ft | 8 kts | 328° |
| 2026-05-05 06:50 | 52.36638 | 13.50269 | 140 ft | 9 kts | 242° |
| 2026-05-05 06:50 | 52.36657 | 13.50186 | 140 ft | 9 kts | 335° |
| 2026-05-05 06:50 | 52.36715 | 13.50122 | 140 ft | 11 kts | 301° |
| 2026-05-05 06:51 | 52.36772 | 13.50036 | 140 ft | 12 kts | 339° |
| 2026-05-05 06:51 | 52.36852 | 13.49982 | 140 ft | 12 kts | 326° |
| 2026-05-05 06:51 | 52.36854 | 13.49854 | 140 ft | 13 kts | 246° |
| 2026-05-05 06:51 | 52.36818 | 13.49705 | 139 ft | 14 kts | 250° |
| 2026-05-05 06:52 | 52.36783 | 13.49555 | 142 ft | 13 kts | 249° |
| 2026-05-05 06:52 | 52.36747 | 13.49406 | 141 ft | 14 kts | 246° |
| 2026-05-05 06:52 | 52.36709 | 13.49244 | 141 ft | 15 kts | 248° |
| 2026-05-05 06:52 | 52.36666 | 13.49070 | 140 ft | 17 kts | 247° |
| 2026-05-05 06:53 | 52.36623 | 13.48885 | 139 ft | 17 kts | 249° |
| 2026-05-05 06:53 | 52.36576 | 13.48686 | 136 ft | 19 kts | 249° |
| 2026-05-05 06:53 | 52.36529 | 13.48488 | 137 ft | 16 kts | 250° |
| 2026-05-05 06:53 | 52.36568 | 13.48340 | 136 ft | 16 kts | 338° |
| 2026-05-05 06:54 | 52.36676 | 13.48279 | 137 ft | 16 kts | 356° |
| 2026-05-05 06:54 | 52.36771 | 13.48501 | 137 ft | 52 kts | 69° |
| 2026-05-05 06:54 | 52.36987 | 13.49411 | 146 ft | 119 kts | 69° |
| 2026-05-05 06:54 | 52.37360 | 13.50979 | 190 ft | 168 kts | 67° |
| 2026-05-05 06:55 | 52.37783 | 13.52732 | 874 ft | 167 kts | 67° |
| 2026-05-05 06:55 | 52.38218 | 13.54449 | 1611 ft | 168 kts | 67° |
| 2026-05-05 06:55 | 52.38644 | 13.56225 | 2285 ft | 173 kts | 69° |
| 2026-05-05 06:55 | 52.39079 | 13.58132 | 2734 ft | 189 kts | 68° |
| 2026-05-05 06:56 | 52.39563 | 13.60241 | 3185 ft | 206 kts | 68° |
| 2026-05-05 06:56 | 52.40093 | 13.62504 | 3658 ft | 222 kts | 68° |
| 2026-05-05 06:56 | 52.40660 | 13.64913 | 4278 ft | 233 kts | 68° |
| 2026-05-05 06:56 | 52.41246 | 13.67408 | 5048 ft | 237 kts | 69° |
| 2026-05-05 06:57 | 52.41823 | 13.69868 | 5890 ft | 238 kts | 70° |
| 2026-05-05 06:57 | 52.42416 | 13.72403 | 6667 ft | 241 kts | 70° |
| 2026-05-05 06:57 | 52.43015 | 13.74965 | 7404 ft | 246 kts | 70° |
| 2026-05-05 06:57 | 52.43641 | 13.77597 | 8142 ft | 250 kts | 66° |
| 2026-05-05 06:58 | 52.44677 | 13.79801 | 8834 ft | 254 kts | 31° |
| 2026-05-05 06:58 | 52.46324 | 13.80676 | 9541 ft | 250 kts | 355° |
| 2026-05-05 06:58 | 52.47978 | 13.80040 | 10232 ft | 247 kts | 334° |
| 2026-05-05 06:58 | 52.49546 | 13.78912 | 10935 ft | 248 kts | 324° |
| 2026-05-05 06:59 | 52.50827 | 13.77128 | 11593 ft | 246 kts | 303° |
| 2026-05-05 06:59 | 52.51802 | 13.74747 | 12016 ft | 259 kts | 297° |
| 2026-05-05 06:59 | 52.52762 | 13.72161 | 12406 ft | 277 kts | 297° |
| 2026-05-05 06:59 | 52.53808 | 13.69369 | 12829 ft | 292 kts | 298° |
| 2026-05-05 07:00 | 52.54894 | 13.66530 | 13479 ft | 299 kts | 298° |
| 2026-05-05 07:00 | 52.55994 | 13.63690 | 14220 ft | 301 kts | 298° |
| 2026-05-05 07:00 | 52.57130 | 13.60765 | 14946 ft | 304 kts | 298° |
| 2026-05-05 07:00 | 52.58244 | 13.57869 | 15633 ft | 306 kts | 295° |
| 2026-05-05 07:01 | 52.58948 | 13.54613 | 16277 ft | 301 kts | 273° |
| 2026-05-05 07:01 | 52.58823 | 13.51230 | 16880 ft | 300 kts | 253° |
| 2026-05-05 07:01 | 52.58001 | 13.48047 | 17177 ft | 313 kts | 242° |
| 2026-05-05 07:01 | 52.56975 | 13.44826 | 17444 ft | 328 kts | 242° |
| 2026-05-05 07:02 | 52.55902 | 13.41437 | 17696 ft | 343 kts | 242° |
| 2026-05-05 07:02 | 52.54794 | 13.37916 | 17946 ft | 356 kts | 242° |
| 2026-05-05 07:02 | 52.53630 | 13.34211 | 18224 ft | 368 kts | 241° |
| 2026-05-05 07:02 | 52.52455 | 13.30468 | 18697 ft | 374 kts | 242° |
| 2026-05-05 07:03 | 52.51262 | 13.26666 | 19284 ft | 375 kts | 242° |
| 2026-05-05 07:03 | 52.50084 | 13.22917 | 19841 ft | 377 kts | 241° |
| 2026-05-05 07:03 | 52.48872 | 13.19069 | 20369 ft | 380 kts | 241° |
| 2026-05-05 07:03 | 52.47655 | 13.15217 | 20883 ft | 382 kts | 241° |
| 2026-05-05 07:04 | 52.46443 | 13.11386 | 21402 ft | 384 kts | 241° |
| 2026-05-05 07:04 | 52.45204 | 13.07481 | 21902 ft | 386 kts | 241° |
| 2026-05-05 07:04 | 52.43963 | 13.03569 | 22367 ft | 389 kts | 241° |
| 2026-05-05 07:04 | 52.42725 | 12.99671 | 22801 ft | 392 kts | 241° |
| 2026-05-05 07:05 | 52.41463 | 12.95706 | 23244 ft | 395 kts | 241° |
| 2026-05-05 07:05 | 52.40200 | 12.91739 | 23666 ft | 398 kts | 242° |
| 2026-05-05 07:05 | 52.38915 | 12.87703 | 24117 ft | 400 kts | 242° |
| 2026-05-05 07:05 | 52.37626 | 12.83664 | 24554 ft | 402 kts | 242° |
| 2026-05-05 07:06 | 52.36332 | 12.79616 | 24979 ft | 404 kts | 242° |
| 2026-05-05 07:06 | 52.35037 | 12.75573 | 25407 ft | 406 kts | 242° |
| 2026-05-05 07:06 | 52.33726 | 12.71490 | 25893 ft | 406 kts | 242° |
| 2026-05-05 07:06 | 52.32423 | 12.67436 | 26454 ft | 404 kts | 242° |
| 2026-05-05 07:07 | 52.31134 | 12.63435 | 26934 ft | 404 kts | 242° |
| 2026-05-05 07:07 | 52.29822 | 12.59366 | 27364 ft | 405 kts | 242° |
| 2026-05-05 07:07 | 52.28524 | 12.55350 | 27751 ft | 406 kts | 242° |
| 2026-05-05 07:07 | 52.27099 | 12.51325 | 27864 ft | 408 kts | 235° |
| 2026-05-05 07:08 | 52.25244 | 12.47856 | 27875 ft | 409 kts | 225° |
| 2026-05-05 07:08 | 52.23009 | 12.45032 | 27869 ft | 411 kts | 215° |
| 2026-05-05 07:08 | 52.20482 | 12.42813 | 27872 ft | 413 kts | 210° |
| 2026-05-05 07:08 | 52.17934 | 12.40735 | 27877 ft | 413 kts | 210° |
| 2026-05-05 07:09 | 52.15353 | 12.38650 | 27882 ft | 413 kts | 210° |
| 2026-05-05 07:09 | 52.12794 | 12.36589 | 27870 ft | 413 kts | 210° |
| 2026-05-05 07:09 | 52.10267 | 12.34464 | 27865 ft | 412 kts | 213° |
| 2026-05-05 07:09 | 52.07918 | 12.31810 | 27866 ft | 409 kts | 221° |
| 2026-05-05 07:10 | 52.05851 | 12.28659 | 27864 ft | 407 kts | 229° |
| 2026-05-05 07:10 | 52.04062 | 12.25090 | 27869 ft | 407 kts | 233° |
| 2026-05-05 07:10 | 52.02381 | 12.21455 | 27866 ft | 407 kts | 234° |
| 2026-05-05 07:10 | 52.00687 | 12.17756 | 27867 ft | 406 kts | 234° |
| 2026-05-05 07:11 | 51.99011 | 12.14101 | 27869 ft | 407 kts | 234° |
| 2026-05-05 07:11 | 51.97333 | 12.10444 | 27870 ft | 406 kts | 234° |
| 2026-05-05 07:11 | 51.95655 | 12.06795 | 27868 ft | 407 kts | 234° |
| 2026-05-05 07:11 | 51.93952 | 12.03099 | 27866 ft | 408 kts | 234° |
| 2026-05-05 07:12 | 51.92259 | 11.99433 | 27869 ft | 408 kts | 234° |
| 2026-05-05 07:12 | 51.90567 | 11.95774 | 27870 ft | 407 kts | 234° |
| 2026-05-05 07:12 | 51.88864 | 11.92096 | 27871 ft | 407 kts | 234° |
| 2026-05-05 07:12 | 51.87177 | 11.88458 | 27868 ft | 407 kts | 234° |
| 2026-05-05 07:13 | 51.85470 | 11.84787 | 27871 ft | 407 kts | 234° |
| 2026-05-05 07:13 | 51.83770 | 11.81161 | 27867 ft | 407 kts | 234° |
| 2026-05-05 07:13 | 51.82069 | 11.77571 | 27868 ft | 408 kts | 234° |
| 2026-05-05 07:13 | 51.80342 | 11.73932 | 27871 ft | 408 kts | 234° |
| 2026-05-05 07:14 | 51.78625 | 11.70321 | 27873 ft | 407 kts | 234° |
| 2026-05-05 07:14 | 51.76892 | 11.66680 | 27872 ft | 408 kts | 234° |
| 2026-05-05 07:14 | 51.75169 | 11.63061 | 27877 ft | 408 kts | 234° |
| 2026-05-05 07:14 | 51.73453 | 11.59462 | 27878 ft | 408 kts | 234° |
| 2026-05-05 07:15 | 51.71727 | 11.55846 | 27878 ft | 408 kts | 234° |
| 2026-05-05 07:15 | 51.70005 | 11.52241 | 27879 ft | 408 kts | 234° |
| 2026-05-05 07:15 | 51.68267 | 11.48610 | 27884 ft | 409 kts | 234° |
| 2026-05-05 07:15 | 51.66537 | 11.44999 | 27880 ft | 408 kts | 234° |
| 2026-05-05 07:16 | 51.64825 | 11.41430 | 27882 ft | 409 kts | 234° |
| 2026-05-05 07:16 | 51.63077 | 11.37793 | 27880 ft | 409 kts | 234° |
| 2026-05-05 07:16 | 51.61328 | 11.34158 | 27879 ft | 409 kts | 233° |
| 2026-05-05 07:16 | 51.59601 | 11.30576 | 27876 ft | 409 kts | 233° |
| 2026-05-05 07:17 | 51.57870 | 11.26985 | 27878 ft | 409 kts | 233° |
| 2026-05-05 07:17 | 51.56134 | 11.23388 | 27879 ft | 409 kts | 233° |
| 2026-05-05 07:17 | 51.54386 | 11.19779 | 27880 ft | 409 kts | 233° |
| 2026-05-05 07:17 | 51.52632 | 11.16160 | 27877 ft | 409 kts | 233° |
| 2026-05-05 07:18 | 51.50894 | 11.12566 | 27879 ft | 409 kts | 234° |
| 2026-05-05 07:18 | 51.49238 | 11.08882 | 27880 ft | 409 kts | 236° |
| 2026-05-05 07:18 | 51.47697 | 11.05059 | 27882 ft | 409 kts | 239° |
| 2026-05-05 07:18 | 51.46282 | 11.01128 | 27885 ft | 408 kts | 241° |
| 2026-05-05 07:19 | 51.44911 | 10.97195 | 27889 ft | 408 kts | 241° |
| 2026-05-05 07:19 | 51.43530 | 10.93244 | 27887 ft | 408 kts | 241° |
| 2026-05-05 07:19 | 51.42144 | 10.89279 | 27884 ft | 409 kts | 241° |
| 2026-05-05 07:19 | 51.40753 | 10.85308 | 27884 ft | 410 kts | 241° |
| 2026-05-05 07:20 | 51.39355 | 10.81317 | 27885 ft | 410 kts | 241° |
| 2026-05-05 07:20 | 51.37963 | 10.77348 | 27885 ft | 410 kts | 241° |
| 2026-05-05 07:20 | 51.36569 | 10.73383 | 27880 ft | 410 kts | 241° |
| 2026-05-05 07:20 | 51.35182 | 10.69441 | 27882 ft | 410 kts | 241° |
| 2026-05-05 07:21 | 51.33784 | 10.65466 | 27880 ft | 410 kts | 241° |
| 2026-05-05 07:21 | 51.32394 | 10.61530 | 27879 ft | 411 kts | 241° |
| 2026-05-05 07:21 | 51.30998 | 10.57583 | 27879 ft | 411 kts | 241° |
| 2026-05-05 07:21 | 51.29598 | 10.53632 | 27879 ft | 410 kts | 241° |
| 2026-05-05 07:22 | 51.28131 | 10.49712 | 27878 ft | 410 kts | 238° |
| 2026-05-05 07:22 | 51.26549 | 10.45963 | 27876 ft | 411 kts | 236° |
| 2026-05-05 07:22 | 51.24842 | 10.42337 | 27879 ft | 411 kts | 232° |
| 2026-05-05 07:22 | 51.23059 | 10.38798 | 27877 ft | 411 kts | 232° |
| 2026-05-05 07:23 | 51.21259 | 10.35208 | 27873 ft | 411 kts | 232° |
| 2026-05-05 07:23 | 51.19488 | 10.31685 | 27877 ft | 412 kts | 232° |
| 2026-05-05 07:23 | 51.17684 | 10.28107 | 27876 ft | 412 kts | 231° |
| 2026-05-05 07:23 | 51.15703 | 10.24844 | 27858 ft | 414 kts | 219° |
| 2026-05-05 07:24 | 51.13180 | 10.22589 | 27869 ft | 419 kts | 203° |
| 2026-05-05 07:24 | 51.10309 | 10.21551 | 27873 ft | 426 kts | 188° |
| 2026-05-05 07:24 | 51.07361 | 10.21433 | 27878 ft | 428 kts | 184° |
| 2026-05-05 07:24 | 51.04363 | 10.21381 | 27876 ft | 429 kts | 184° |
| 2026-05-05 07:25 | 51.01395 | 10.21334 | 27873 ft | 428 kts | 184° |
| 2026-05-05 07:25 | 50.98403 | 10.21280 | 27869 ft | 428 kts | 184° |
| 2026-05-05 07:25 | 50.95470 | 10.21227 | 27869 ft | 427 kts | 184° |
| 2026-05-05 07:25 | 50.92509 | 10.21174 | 27867 ft | 428 kts | 184° |
| 2026-05-05 07:26 | 50.89540 | 10.21120 | 27866 ft | 428 kts | 184° |
| 2026-05-05 07:26 | 50.86552 | 10.21059 | 27866 ft | 427 kts | 185° |
| 2026-05-05 07:26 | 50.83640 | 10.20295 | 27842 ft | 420 kts | 203° |
| 2026-05-05 07:26 | 50.81139 | 10.18043 | 27864 ft | 415 kts | 220° |
| 2026-05-05 07:27 | 50.79087 | 10.14813 | 27400 ft | 416 kts | 230° |
| 2026-05-05 07:27 | 50.77231 | 10.11366 | 26565 ft | 418 kts | 230° |
| 2026-05-05 07:27 | 50.75378 | 10.07863 | 25767 ft | 416 kts | 233° |
| 2026-05-05 07:27 | 50.73781 | 10.04080 | 25105 ft | 412 kts | 238° |
| 2026-05-05 07:28 | 50.72317 | 10.00247 | 24397 ft | 409 kts | 239° |
| 2026-05-05 07:28 | 50.70863 | 9.96409 | 23672 ft | 408 kts | 239° |
| 2026-05-05 07:28 | 50.69414 | 9.92629 | 22961 ft | 407 kts | 238° |
| 2026-05-05 07:28 | 50.67942 | 9.88832 | 22288 ft | 404 kts | 238° |
| 2026-05-05 07:29 | 50.66490 | 9.85116 | 21727 ft | 399 kts | 238° |
| 2026-05-05 07:29 | 50.65035 | 9.81419 | 21182 ft | 394 kts | 238° |
| 2026-05-05 07:29 | 50.63605 | 9.77798 | 20665 ft | 389 kts | 238° |
| 2026-05-05 07:29 | 50.62187 | 9.74218 | 20152 ft | 385 kts | 238° |
| 2026-05-05 07:30 | 50.60777 | 9.70667 | 19643 ft | 381 kts | 238° |
| 2026-05-05 07:30 | 50.57997 | 9.63682 | 18640 ft | 374 kts | 238° |
| 2026-05-05 07:30 | 50.56643 | 9.60289 | 18150 ft | 371 kts | 237° |
| 2026-05-05 07:31 | 50.55280 | 9.56878 | 17660 ft | 368 kts | 237° |
| 2026-05-05 07:31 | 50.53911 | 9.53517 | 17162 ft | 365 kts | 234° |
| 2026-05-05 07:31 | 50.52137 | 9.50765 | 16183 ft | 360 kts | 213° |
| 2026-05-05 07:31 | 50.49847 | 9.49342 | 14741 ft | 367 kts | 194° |
| 2026-05-05 07:32 | 50.47354 | 9.48579 | 13221 ft | 371 kts | 192° |
| 2026-05-05 07:32 | 50.44861 | 9.47794 | 11931 ft | 365 kts | 193° |
| 2026-05-05 07:32 | 50.42465 | 9.46994 | 11419 ft | 348 kts | 193° |
| 2026-05-05 07:32 | 50.40102 | 9.46176 | 11010 ft | 347 kts | 194° |
| 2026-05-05 07:33 | 50.37795 | 9.45357 | 10661 ft | 340 kts | 194° |
| 2026-05-05 07:33 | 50.35536 | 9.44544 | 10542 ft | 324 kts | 194° |
| 2026-05-05 07:33 | 50.33388 | 9.43768 | 10423 ft | 309 kts | 194° |
| 2026-05-05 07:33 | 50.31334 | 9.43023 | 10279 ft | 297 kts | 194° |
| 2026-05-05 07:34 | 50.29356 | 9.42306 | 10083 ft | 287 kts | 194° |
| 2026-05-05 07:34 | 50.27466 | 9.41621 | 9979 ft | 275 kts | 194° |
| 2026-05-05 07:34 | 50.25623 | 9.40947 | 9880 ft | 275 kts | 194° |
| 2026-05-05 07:34 | 50.23742 | 9.40251 | 9779 ft | 276 kts | 196° |
| 2026-05-05 07:35 | 50.22026 | 9.38999 | 9422 ft | 279 kts | 219° |
| 2026-05-05 07:35 | 50.20810 | 9.36639 | 8882 ft | 284 kts | 245° |
| 2026-05-05 07:35 | 50.20435 | 9.33667 | 8616 ft | 282 kts | 271° |
| 2026-05-05 07:35 | 50.20835 | 9.30707 | 8345 ft | 279 kts | 283° |
| 2026-05-05 07:36 | 50.21127 | 9.27752 | 8032 ft | 273 kts | 268° |
| 2026-05-05 07:36 | 50.20974 | 9.24847 | 7730 ft | 269 kts | 258° |
| 2026-05-05 07:36 | 50.20540 | 9.22014 | 7410 ft | 266 kts | 252° |
| 2026-05-05 07:36 | 50.19981 | 9.19298 | 7090 ft | 265 kts | 249° |
| 2026-05-05 07:37 | 50.19367 | 9.16610 | 6767 ft | 263 kts | 250° |
| 2026-05-05 07:37 | 50.18857 | 9.13892 | 6447 ft | 262 kts | 253° |
| 2026-05-05 07:37 | 50.18361 | 9.11167 | 6138 ft | 261 kts | 251° |
| 2026-05-05 07:37 | 50.17818 | 9.08465 | 5824 ft | 259 kts | 250° |
| 2026-05-05 07:38 | 50.17245 | 9.05822 | 5508 ft | 258 kts | 249° |
| 2026-05-05 07:38 | 50.16643 | 9.03188 | 5219 ft | 256 kts | 249° |
| 2026-05-05 07:38 | 50.16040 | 9.00642 | 5120 ft | 245 kts | 248° |
| 2026-05-05 07:38 | 50.15457 | 8.98233 | 5063 ft | 235 kts | 248° |
| 2026-05-05 07:39 | 50.14877 | 8.95863 | 5031 ft | 234 kts | 248° |
| 2026-05-05 07:39 | 50.14291 | 8.93477 | 5051 ft | 234 kts | 248° |
| 2026-05-05 07:39 | 50.13712 | 8.91127 | 5066 ft | 234 kts | 248° |
| 2026-05-05 07:39 | 50.13129 | 8.88754 | 4977 ft | 234 kts | 248° |
| 2026-05-05 07:40 | 50.12555 | 8.86410 | 4709 ft | 234 kts | 249° |
| 2026-05-05 07:40 | 50.11975 | 8.84034 | 4397 ft | 233 kts | 249° |
| 2026-05-05 07:40 | 50.11401 | 8.81676 | 4089 ft | 232 kts | 249° |
| 2026-05-05 07:40 | 50.10838 | 8.79361 | 3784 ft | 231 kts | 249° |
| 2026-05-05 07:41 | 50.10277 | 8.77045 | 3483 ft | 224 kts | 250° |
| 2026-05-05 07:41 | 50.09742 | 8.74833 | 3184 ft | 214 kts | 250° |
| 2026-05-05 07:41 | 50.09230 | 8.72713 | 2905 ft | 204 kts | 250° |
| 2026-05-05 07:41 | 50.08750 | 8.70721 | 2711 ft | 189 kts | 250° |
| 2026-05-05 07:42 | 50.08297 | 8.68843 | 2445 ft | 185 kts | 250° |
| 2026-05-05 07:42 | 50.07857 | 8.67017 | 2201 ft | 174 kts | 250° |
| 2026-05-05 07:42 | 50.07450 | 8.65325 | 1963 ft | 164 kts | 250° |
| 2026-05-05 07:42 | 50.07053 | 8.63674 | 1745 ft | 163 kts | 250° |
| 2026-05-05 07:43 | 50.06673 | 8.62092 | 1518 ft | 149 kts | 250° |
| 2026-05-05 07:43 | 50.06319 | 8.60644 | 1280 ft | 137 kts | 249° |
| 2026-05-05 07:43 | 50.05977 | 8.59276 | 1111 ft | 134 kts | 250° |
| 2026-05-05 07:43 | 50.05655 | 8.57915 | 975 ft | 134 kts | 251° |
| 2026-05-05 07:44 | 50.05351 | 8.56571 | 825 ft | 133 kts | 250° |
| 2026-05-05 07:44 | 50.05017 | 8.55225 | 661 ft | 133 kts | 250° |
| 2026-05-05 07:44 | 50.04693 | 8.53866 | 484 ft | 133 kts | 250° |
| 2026-05-05 07:44 | 50.04372 | 8.52525 | 366 ft | 126 kts | 249° |
| 2026-05-05 07:45 | 50.04124 | 8.51454 | 361 ft | 77 kts | 250° |
| 2026-05-05 07:45 | 50.03952 | 8.50979 | 357 ft | 28 kts | 224° |
| 2026-05-05 07:45 | 50.03844 | 8.50844 | 355 ft | 16 kts | 203° |
| 2026-05-05 07:45 | 50.03780 | 8.50872 | 356 ft | 0 kts | 113° |
| 2026-05-05 07:46 | 50.03778 | 8.50904 | 356 ft | 7 kts | 84° |
| 2026-05-05 07:46 | 50.03800 | 8.51000 | 358 ft | 9 kts | 68° |
| 2026-05-05 07:47 | 50.03826 | 8.51106 | 358 ft | 11 kts | 72° |
| 2026-05-05 07:47 | 50.03853 | 8.51223 | 358 ft | 11 kts | 70° |
| 2026-05-05 07:47 | 50.03883 | 8.51345 | 359 ft | 12 kts | 70° |
| 2026-05-05 07:47 | 50.03914 | 8.51476 | 359 ft | 13 kts | 70° |
| 2026-05-05 07:48 | 50.03947 | 8.51616 | 359 ft | 14 kts | 71° |
| 2026-05-05 07:48 | 50.03986 | 8.51774 | 358 ft | 16 kts | 70° |
| 2026-05-05 07:48 | 50.04025 | 8.51942 | 356 ft | 17 kts | 69° |
| 2026-05-05 07:48 | 50.04070 | 8.52126 | 356 ft | 18 kts | 71° |
| 2026-05-05 07:49 | 50.04113 | 8.52309 | 357 ft | 17 kts | 69° |
| 2026-05-05 07:49 | 50.04150 | 8.52459 | 360 ft | 12 kts | 70° |
| 2026-05-05 07:49 | 50.04182 | 8.52589 | 360 ft | 13 kts | 71° |
| 2026-05-05 07:49 | 50.04216 | 8.52739 | 358 ft | 15 kts | 70° |
| 2026-05-05 07:50 | 50.04256 | 8.52908 | 357 ft | 17 kts | 69° |
| 2026-05-05 07:50 | 50.04303 | 8.53098 | 353 ft | 20 kts | 69° |
| 2026-05-05 07:50 | 50.04352 | 8.53305 | 352 ft | 20 kts | 70° |
| 2026-05-05 07:50 | 50.04395 | 8.53505 | 352 ft | 18 kts | 82° |
| 2026-05-05 07:51 | 50.04409 | 8.53704 | 353 ft | 18 kts | 84° |
| 2026-05-05 07:51 | 50.04422 | 8.53904 | 354 ft | 18 kts | 84° |
| 2026-05-05 07:51 | 50.04436 | 8.54098 | 355 ft | 18 kts | 84° |
| 2026-05-05 07:51 | 50.04449 | 8.54293 | 354 ft | 18 kts | 84° |
| 2026-05-05 07:52 | 50.04451 | 8.54493 | 353 ft | 19 kts | 101° |
| 2026-05-05 07:52 | 50.04391 | 8.54682 | 352 ft | 20 kts | 133° |
| 2026-05-05 07:52 | 50.04269 | 8.54798 | 351 ft | 16 kts | 160° |
| 2026-05-05 07:52 | 50.04180 | 8.54845 | 351 ft | 13 kts | 159° |
| 2026-05-05 07:53 | 50.04085 | 8.54902 | 349 ft | 15 kts | 160° |
| 2026-05-05 07:53 | 50.03976 | 8.54968 | 347 ft | 16 kts | 157° |
| 2026-05-05 07:53 | 50.03901 | 8.55011 | 346 ft | 10 kts | 160° |
| 2026-05-05 07:53 | 50.03844 | 8.55082 | 346 ft | 11 kts | 95° |
| 2026-05-05 07:54 | 50.03867 | 8.55187 | 348 ft | 10 kts | 69° |
| 2026-05-05 07:54 | 50.03892 | 8.55294 | 349 ft | 10 kts | 71° |
| 2026-05-05 07:54 | 50.03918 | 8.55409 | 350 ft | 11 kts | 71° |
| 2026-05-05 07:54 | 50.03947 | 8.55532 | 349 ft | 12 kts | 69° |
| 2026-05-05 07:55 | 50.03981 | 8.55665 | 350 ft | 13 kts | 68° |
| 2026-05-05 07:55 | 50.04017 | 8.55806 | 349 ft | 15 kts | 70° |
| 2026-05-05 07:55 | 50.04050 | 8.55955 | 352 ft | 13 kts | 70° |
| 2026-05-05 07:55 | 50.04084 | 8.56094 | 353 ft | 13 kts | 69° |
| 2026-05-05 07:56 | 50.04115 | 8.56224 | 356 ft | 12 kts | 70° |
| 2026-05-05 07:56 | 50.04144 | 8.56351 | 357 ft | 12 kts | 69° |
| 2026-05-05 07:56 | 50.04176 | 8.56477 | 358 ft | 12 kts | 70° |
| 2026-05-05 07:56 | 50.04203 | 8.56596 | 359 ft | 8 kts | 70° |
| 2026-05-05 07:57 | 50.04216 | 8.56650 | 360 ft | 5 kts | 70° |
| 2026-05-05 07:57 | 50.04219 | 8.56664 | 360 ft | 0 kts | 70° |
| 2026-05-05 07:59 | 50.04227 | 8.56695 | 361 ft | 6 kts | 69° |
| 2026-05-05 07:59 | 50.04242 | 8.56756 | 362 ft | 5 kts | 70° |
| 2026-05-05 07:59 | 50.04259 | 8.56793 | 364 ft | 3 kts | 33° |
| 2026-05-05 07:59 | 50.04298 | 8.56812 | 366 ft | 11 kts | 11° |
| 2026-05-05 08:00 | 50.04374 | 8.56834 | 368 ft | 10 kts | 10° |
| 2026-05-05 08:00 | 50.04446 | 8.56852 | 370 ft | 10 kts | 11° |
| 2026-05-05 08:00 | 50.04518 | 8.56878 | 371 ft | 10 kts | 13° |
| 2026-05-05 08:00 | 50.04587 | 8.56903 | 373 ft | 10 kts | 13° |
| 2026-05-05 08:01 | 50.04656 | 8.56936 | 374 ft | 10 kts | 24° |
| 2026-05-05 08:01 | 50.04724 | 8.56983 | 375 ft | 10 kts | 24° |
| 2026-05-05 08:01 | 50.04791 | 8.57031 | 377 ft | 10 kts | 26° |
| 2026-05-05 08:01 | 50.04855 | 8.57078 | 378 ft | 7 kts | 23° |
| 2026-05-05 08:02 | 50.04880 | 8.57046 | 378 ft | 4 kts | 289° |
| 2026-05-05 08:02 | 50.04889 | 8.57012 | 379 ft | 3 kts | 294° |
| 2026-05-05 08:02 | 50.04894 | 8.56995 | 379 ft | 0 kts | 294° |